createdAt,value
2019-02-11T00:00:49.162Z,932.70
2019-02-11T00:01:57.115Z,932.67
2019-02-11T00:03:05.256Z,932.65
2019-02-11T00:04:13.506Z,932.67
2019-02-11T00:05:21.601Z,932.72
2019-02-11T00:06:29.408Z,932.74
2019-02-11T00:07:37.413Z,932.72
2019-02-11T00:08:45.486Z,932.73
2019-02-11T00:09:53.633Z,932.76
2019-02-11T00:11:01.641Z,932.78
2019-02-11T00:12:09.759Z,932.84
2019-02-11T00:13:17.702Z,932.88
2019-02-11T00:14:25.823Z,932.89
2019-02-11T00:15:33.815Z,932.83
2019-02-11T00:16:41.915Z,932.84
2019-02-11T00:17:49.908Z,932.89
2019-02-11T00:18:57.997Z,932.94
2019-02-11T00:20:06.104Z,932.96
2019-02-11T00:21:14.149Z,932.89
2019-02-11T00:22:22.148Z,932.88
2019-02-11T00:23:30.198Z,932.88
2019-02-11T00:24:38.290Z,932.91
2019-02-11T00:25:46.294Z,932.94
2019-02-11T00:26:54.468Z,932.94
2019-02-11T00:28:02.528Z,932.95
2019-02-11T00:29:10.495Z,932.96
2019-02-11T00:30:18.557Z,932.99
2019-02-11T00:31:26.781Z,933.04
2019-02-11T00:32:34.662Z,933.02
2019-02-11T00:33:42.701Z,933.06
2019-02-11T00:34:50.790Z,933.05
2019-02-11T00:35:58.835Z,933.07
2019-02-11T00:37:06.939Z,933.10
2019-02-11T00:38:14.961Z,933.14
2019-02-11T00:39:22.988Z,933.12
2019-02-11T00:40:31.070Z,933.19
2019-02-11T00:41:39.165Z,933.25
2019-02-11T00:42:47.262Z,933.22
2019-02-11T00:43:55.236Z,933.26
2019-02-11T00:45:03.285Z,933.30
2019-02-11T00:46:11.346Z,933.31
2019-02-11T00:47:19.403Z,933.31
2019-02-11T00:48:27.455Z,933.34
2019-02-11T00:49:35.515Z,933.26
2019-02-11T00:50:43.575Z,933.28
2019-02-11T00:51:51.665Z,933.28
2019-02-11T00:52:59.691Z,933.34
2019-02-11T00:54:07.754Z,933.36
2019-02-11T00:55:15.790Z,933.27
2019-02-11T00:56:23.852Z,933.33
2019-02-11T00:57:32.000Z,933.37
2019-02-11T00:58:39.978Z,933.39
2019-02-11T00:59:48.043Z,933.38
2019-02-11T01:00:56.091Z,933.40
2019-02-11T01:02:04.210Z,933.42
2019-02-11T01:03:12.173Z,933.42
2019-02-11T01:04:20.255Z,933.42
2019-02-11T01:05:28.307Z,933.44
2019-02-11T01:06:36.385Z,933.42
2019-02-11T01:07:44.450Z,933.45
2019-02-11T01:08:52.498Z,933.41
2019-02-11T01:10:00.546Z,933.45
2019-02-11T01:11:08.630Z,933.42
2019-02-11T01:12:16.767Z,933.51
2019-02-11T01:13:27.650Z,933.55
2019-02-11T01:14:32.778Z,933.61
2019-02-11T01:15:40.837Z,933.69
2019-02-11T01:16:49.000Z,933.82
2019-02-11T01:17:56.964Z,933.88
2019-02-11T01:19:04.995Z,933.90
2019-02-11T01:20:13.077Z,933.88
2019-02-11T01:21:21.137Z,933.80
2019-02-11T01:22:29.227Z,933.77
2019-02-11T01:23:37.242Z,933.85
2019-02-11T01:24:45.317Z,933.90
2019-02-11T01:25:53.352Z,933.89
2019-02-11T01:27:01.498Z,933.78
2019-02-11T01:28:09.562Z,933.85
2019-02-11T01:29:17.541Z,933.76
2019-02-11T01:30:25.589Z,933.72
2019-02-11T01:31:33.659Z,933.70
2019-02-11T01:32:41.789Z,933.73
2019-02-11T01:33:49.761Z,933.79
2019-02-11T01:34:57.857Z,933.86
2019-02-11T01:36:05.875Z,933.86
2019-02-11T01:37:14.028Z,933.84
2019-02-11T01:38:21.961Z,933.84
2019-02-11T01:39:30.050Z,933.86
2019-02-11T01:40:38.089Z,933.83
2019-02-11T01:41:46.169Z,933.82
2019-02-11T01:42:54.311Z,933.81
2019-02-11T01:44:02.262Z,933.82
2019-02-11T01:45:10.332Z,933.79
2019-02-11T01:46:18.389Z,933.80
2019-02-11T01:47:26.549Z,933.78
2019-02-11T01:48:34.489Z,933.82
2019-02-11T01:49:42.558Z,933.85
2019-02-11T01:50:50.611Z,933.89
2019-02-11T01:51:58.678Z,933.88
2019-02-11T01:53:06.766Z,933.91
2019-02-11T01:54:14.793Z,933.92
2019-02-11T01:55:22.848Z,933.96
2019-02-11T01:56:30.896Z,933.92
2019-02-11T01:57:39.065Z,933.95
2019-02-11T01:58:46.991Z,933.90
2019-02-11T01:59:55.216Z,934.01
2019-02-11T02:01:03.191Z,933.95
2019-02-11T02:02:11.186Z,933.97
2019-02-11T02:03:19.280Z,934.08
2019-02-11T02:04:27.284Z,934.10
2019-02-11T02:05:35.345Z,934.11
2019-02-11T02:06:43.384Z,934.12
2019-02-11T02:07:51.559Z,934.16
2019-02-11T02:08:59.532Z,934.09
2019-02-11T02:10:07.582Z,934.09
2019-02-11T02:11:15.649Z,934.06
2019-02-11T02:12:23.685Z,934.06
2019-02-11T02:13:31.804Z,934.13
2019-02-11T02:14:39.812Z,934.10
2019-02-11T02:15:47.854Z,934.14
2019-02-11T02:16:55.910Z,934.12
2019-02-11T02:18:04.084Z,934.11
2019-02-11T02:19:12.049Z,934.10
2019-02-11T02:20:20.076Z,934.07
2019-02-11T02:21:28.155Z,934.11
2019-02-11T02:22:36.184Z,934.05
2019-02-11T02:23:44.355Z,934.03
2019-02-11T02:24:52.319Z,934.05
2019-02-11T02:26:00.387Z,934.11
2019-02-11T02:27:08.422Z,934.07
2019-02-11T02:28:16.589Z,934.14
2019-02-11T02:29:24.650Z,934.07
2019-02-11T02:30:32.581Z,934.06
2019-02-11T02:31:40.650Z,934.12
2019-02-11T02:32:48.689Z,934.13
2019-02-11T02:33:56.869Z,934.17
2019-02-11T02:35:04.848Z,934.23
2019-02-11T02:36:12.874Z,934.23
2019-02-11T02:37:20.930Z,934.23
2019-02-11T02:38:29.102Z,934.26
2019-02-11T02:39:37.065Z,934.31
2019-02-11T02:40:45.168Z,934.28
2019-02-11T02:41:53.174Z,934.30
2019-02-11T02:43:01.224Z,934.29
2019-02-11T02:44:09.335Z,934.39
2019-02-11T02:45:17.446Z,934.33
2019-02-11T02:46:25.432Z,934.34
2019-02-11T02:47:33.467Z,934.31
2019-02-11T02:48:41.579Z,934.29
2019-02-11T02:49:49.593Z,934.19
2019-02-11T02:50:57.628Z,934.20
2019-02-11T02:52:05.675Z,934.24
2019-02-11T02:53:13.778Z,934.22
2019-02-11T02:54:21.960Z,934.32
2019-02-11T02:55:29.878Z,934.30
2019-02-11T02:56:37.908Z,934.29
2019-02-11T02:57:45.982Z,934.31
2019-02-11T02:58:54.125Z,934.27
2019-02-11T03:00:02.074Z,934.28
2019-02-11T03:01:10.243Z,934.35
2019-02-11T03:02:18.214Z,934.42
2019-02-11T03:03:26.264Z,934.35
2019-02-11T03:04:34.317Z,934.37
2019-02-11T03:05:42.377Z,934.45
2019-02-11T03:06:50.495Z,934.40
2019-02-11T03:07:58.479Z,934.41
2019-02-11T03:09:06.572Z,934.42
2019-02-11T03:10:14.667Z,934.52
2019-02-11T03:11:22.649Z,934.59
2019-02-11T03:12:30.700Z,934.55
2019-02-11T03:13:38.762Z,934.61
2019-02-11T03:14:46.803Z,934.60
2019-02-11T03:15:54.891Z,934.66
2019-02-11T03:17:03.038Z,934.65
2019-02-11T03:18:11.030Z,934.64
2019-02-11T03:19:19.109Z,934.65
2019-02-11T03:20:27.096Z,934.66
2019-02-11T03:21:35.192Z,934.66
2019-02-11T03:22:43.219Z,934.62
2019-02-11T03:23:51.254Z,934.62
2019-02-11T03:24:59.433Z,934.63
2019-02-11T03:26:07.386Z,934.75
2019-02-11T03:27:15.455Z,934.76
2019-02-11T03:28:23.592Z,934.79
2019-02-11T03:29:31.585Z,934.82
2019-02-11T03:30:39.602Z,934.86
2019-02-11T03:31:47.731Z,934.88
2019-02-11T03:32:55.832Z,934.93
2019-02-11T03:34:03.876Z,934.91
2019-02-11T03:35:11.862Z,934.93
2019-02-11T03:36:19.896Z,934.95
2019-02-11T03:37:27.964Z,934.93
2019-02-11T03:38:36.323Z,934.96
2019-02-11T03:39:44.212Z,934.94
2019-02-11T03:40:52.139Z,935.00
2019-02-11T03:42:00.172Z,935.07
2019-02-11T03:43:08.219Z,935.08
2019-02-11T03:44:16.329Z,935.03
2019-02-11T03:45:24.538Z,935.05
2019-02-11T03:46:32.559Z,935.07
2019-02-11T03:47:40.903Z,935.10
2019-02-11T03:48:48.527Z,935.13
2019-02-11T03:49:56.637Z,935.10
2019-02-11T03:51:04.686Z,935.14
2019-02-11T03:52:12.688Z,935.15
2019-02-11T03:53:20.759Z,935.25
2019-02-11T03:54:29.150Z,935.20
2019-02-11T03:55:36.877Z,935.20
2019-02-11T03:56:44.910Z,935.30
2019-02-11T03:57:52.990Z,935.32
2019-02-11T03:59:01.032Z,935.35
2019-02-11T04:00:09.136Z,935.34
2019-02-11T04:01:17.147Z,935.36
2019-02-11T04:02:25.191Z,935.44
2019-02-11T04:03:33.309Z,935.38
2019-02-11T04:04:41.394Z,935.34
2019-02-11T04:05:49.376Z,935.49
2019-02-11T04:06:57.426Z,935.45
2019-02-11T04:08:05.496Z,935.62
2019-02-11T04:09:13.537Z,935.52
2019-02-11T04:10:21.673Z,935.57
2019-02-11T04:11:29.661Z,935.58
2019-02-11T04:12:37.705Z,935.67
2019-02-11T04:13:45.770Z,935.71
2019-02-11T04:14:53.864Z,935.72
2019-02-11T04:16:01.884Z,935.84
2019-02-11T04:17:09.943Z,935.80
2019-02-11T04:18:18.077Z,935.80
2019-02-11T04:19:26.823Z,935.87
2019-02-11T04:20:34.161Z,935.95
2019-02-11T04:21:42.151Z,936.00
2019-02-11T04:22:50.208Z,936.00
2019-02-11T04:23:58.264Z,936.06
2019-02-11T04:25:06.372Z,936.05
2019-02-11T04:26:14.380Z,936.06
2019-02-11T04:27:22.466Z,936.13
2019-02-11T04:28:30.745Z,936.15
2019-02-11T04:29:38.798Z,936.02
2019-02-11T04:30:46.699Z,936.02
2019-02-11T04:31:54.673Z,936.07
2019-02-11T04:33:02.752Z,936.02
2019-02-11T04:34:11.130Z,936.01
2019-02-11T04:35:18.901Z,936.02
2019-02-11T04:36:26.939Z,936.00
2019-02-11T04:37:34.943Z,936.03
2019-02-11T04:38:43.320Z,936.02
2019-02-11T04:39:51.199Z,935.96
2019-02-11T04:40:59.398Z,936.04
2019-02-11T04:42:07.227Z,936.09
2019-02-11T04:43:15.454Z,936.15
2019-02-11T04:44:23.339Z,936.18
2019-02-11T04:45:31.418Z,936.22
2019-02-11T04:46:39.405Z,936.25
2019-02-11T04:47:47.480Z,936.28
2019-02-11T04:48:55.593Z,936.33
2019-02-11T04:50:03.649Z,936.41
2019-02-11T04:51:11.775Z,936.42
2019-02-11T04:52:19.696Z,936.39
2019-02-11T04:53:28.022Z,936.44
2019-02-11T04:54:35.829Z,936.52
2019-02-11T04:55:43.899Z,936.49
2019-02-11T04:56:51.895Z,936.53
2019-02-11T04:58:00.040Z,936.56
2019-02-11T04:59:08.035Z,936.61
2019-02-11T05:00:16.081Z,936.58
2019-02-11T05:01:24.141Z,936.61
2019-02-11T05:02:32.388Z,936.68
2019-02-11T05:03:40.343Z,936.65
2019-02-11T05:04:48.392Z,936.65
2019-02-11T05:05:56.458Z,936.68
2019-02-11T05:07:04.647Z,936.73
2019-02-11T05:08:12.601Z,936.74
2019-02-11T05:09:20.520Z,936.77
2019-02-11T05:10:28.671Z,936.78
2019-02-11T05:11:36.690Z,936.81
2019-02-11T05:12:44.686Z,936.83
2019-02-11T05:13:52.764Z,936.96
2019-02-11T05:15:00.840Z,937.02
2019-02-11T05:16:09.151Z,936.99
2019-02-11T05:17:16.950Z,936.91
2019-02-11T05:18:25.029Z,936.99
2019-02-11T05:19:33.049Z,936.98
2019-02-11T05:20:41.195Z,936.97
2019-02-11T05:21:49.266Z,937.00
2019-02-11T05:22:57.205Z,937.10
2019-02-11T05:24:05.249Z,936.99
2019-02-11T05:25:13.312Z,936.98
2019-02-11T05:26:22.841Z,937.06
2019-02-11T05:27:29.614Z,937.08
2019-02-11T05:28:37.489Z,937.12
2019-02-11T05:29:45.598Z,937.19
2019-02-11T05:30:53.686Z,937.10
2019-02-11T05:32:01.633Z,937.23
2019-02-11T05:33:09.814Z,937.15
2019-02-11T05:34:17.764Z,937.13
2019-02-11T05:35:25.803Z,937.13
2019-02-11T05:36:34.056Z,937.15
2019-02-11T05:37:43.755Z,937.15
2019-02-11T05:38:50.006Z,937.22
2019-02-11T05:39:58.039Z,937.18
2019-02-11T05:41:06.216Z,937.25
2019-02-11T05:42:14.167Z,937.18
2019-02-11T05:43:22.189Z,937.19
2019-02-11T05:44:30.325Z,937.30
2019-02-11T05:45:38.305Z,937.30
2019-02-11T05:46:46.470Z,937.32
2019-02-11T05:47:54.420Z,937.37
2019-02-11T05:49:02.492Z,937.44
2019-02-11T05:50:10.545Z,937.48
2019-02-11T05:51:18.686Z,937.43
2019-02-11T05:52:26.763Z,937.47
2019-02-11T05:53:34.690Z,937.40
2019-02-11T05:54:42.784Z,937.42
2019-02-11T05:55:50.796Z,937.40
2019-02-11T05:56:58.939Z,937.47
2019-02-11T05:58:06.941Z,937.43
2019-02-11T05:59:14.995Z,937.51
2019-02-11T06:00:23.044Z,937.50
2019-02-11T06:01:31.132Z,937.50
2019-02-11T06:02:39.150Z,937.57
2019-02-11T06:03:47.196Z,937.55
2019-02-11T06:04:55.358Z,937.60
2019-02-11T06:06:03.326Z,937.61
2019-02-11T06:07:11.456Z,937.65
2019-02-11T06:08:19.431Z,937.70
2019-02-11T06:09:27.485Z,937.76
2019-02-11T06:10:35.527Z,937.78
2019-02-11T06:11:43.690Z,937.81
2019-02-11T06:12:51.646Z,937.83
2019-02-11T06:13:59.698Z,937.89
2019-02-11T06:15:07.758Z,937.92
2019-02-11T06:16:15.804Z,937.90
2019-02-11T06:17:23.974Z,937.94
2019-02-11T06:18:31.895Z,938.06
2019-02-11T06:19:39.977Z,938.05
2019-02-11T06:20:48.136Z,938.10
2019-02-11T06:21:56.192Z,938.17
2019-02-11T06:23:04.146Z,938.20
2019-02-11T06:24:12.194Z,938.17
2019-02-11T06:25:20.283Z,938.19
2019-02-11T06:26:28.308Z,938.19
2019-02-11T06:27:36.465Z,938.24
2019-02-11T06:28:44.438Z,938.22
2019-02-11T06:29:52.481Z,938.22
2019-02-11T06:31:00.536Z,938.21
2019-02-11T06:32:08.689Z,938.28
2019-02-11T06:33:16.673Z,938.23
2019-02-11T06:34:24.692Z,938.26
2019-02-11T06:35:32.766Z,938.27
2019-02-11T06:36:40.914Z,938.31
2019-02-11T06:37:48.961Z,938.30
2019-02-11T06:38:56.940Z,938.31
2019-02-11T06:40:05.000Z,938.26
2019-02-11T06:41:13.046Z,938.31
2019-02-11T06:42:21.178Z,938.30
2019-02-11T06:43:29.152Z,938.33
2019-02-11T06:44:37.188Z,938.35
2019-02-11T06:45:45.269Z,938.35
2019-02-11T06:46:53.316Z,938.35
2019-02-11T06:48:01.403Z,938.43
2019-02-11T06:49:09.425Z,938.46
2019-02-11T06:50:17.493Z,938.52
2019-02-11T06:51:25.539Z,938.53
2019-02-11T06:52:33.661Z,938.56
2019-02-11T06:53:41.749Z,938.58
2019-02-11T06:54:49.714Z,938.61
2019-02-11T06:55:57.763Z,938.64
2019-02-11T06:57:05.824Z,938.68
2019-02-11T06:58:13.874Z,938.69
2019-02-11T06:59:21.912Z,938.72
2019-02-11T07:00:29.992Z,938.76
2019-02-11T07:01:38.058Z,938.78
2019-02-11T07:02:46.176Z,938.84
2019-02-11T07:03:54.172Z,938.84
2019-02-11T07:05:02.224Z,938.91
2019-02-11T07:06:10.255Z,938.94
2019-02-11T07:07:18.346Z,938.96
2019-02-11T07:08:26.387Z,939.03
2019-02-11T07:09:34.536Z,939.07
2019-02-11T07:10:42.519Z,939.12
2019-02-11T07:11:50.546Z,939.11
2019-02-11T07:12:58.731Z,939.14
2019-02-11T07:14:06.666Z,939.18
2019-02-11T07:15:21.461Z,939.23
2019-02-11T07:16:22.771Z,939.29
2019-02-11T07:17:30.914Z,939.31
2019-02-11T07:18:38.890Z,939.35
2019-02-11T07:19:46.965Z,939.37
2019-02-11T07:20:55.006Z,939.36
2019-02-11T07:22:03.073Z,939.44
2019-02-11T07:23:11.159Z,939.43
2019-02-11T07:24:19.198Z,939.44
2019-02-11T07:25:27.230Z,939.47
2019-02-11T07:26:35.283Z,939.52
2019-02-11T07:27:43.436Z,939.55
2019-02-11T07:28:51.386Z,939.55
2019-02-11T07:29:59.454Z,939.58
2019-02-11T07:31:07.623Z,939.62
2019-02-11T07:32:15.570Z,939.61
2019-02-11T07:33:23.665Z,939.60
2019-02-11T07:34:31.664Z,939.67
2019-02-11T07:35:39.754Z,939.70
2019-02-11T07:36:47.796Z,939.76
2019-02-11T07:37:55.968Z,939.79
2019-02-11T07:39:03.891Z,939.81
2019-02-11T07:40:11.950Z,939.80
2019-02-11T07:41:20.033Z,939.86
2019-02-11T07:42:28.077Z,939.87
2019-02-11T07:43:36.215Z,939.94
2019-02-11T07:44:44.190Z,939.97
2019-02-11T07:45:52.259Z,940.00
2019-02-11T07:47:00.349Z,940.04
2019-02-11T07:48:08.452Z,940.04
2019-02-11T07:49:16.395Z,940.09
2019-02-11T07:50:24.487Z,940.08
2019-02-11T07:51:32.515Z,940.08
2019-02-11T07:52:40.584Z,940.11
2019-02-11T07:53:48.707Z,940.20
2019-02-11T07:54:56.691Z,940.19
2019-02-11T07:56:04.757Z,940.21
2019-02-11T07:57:12.849Z,940.31
2019-02-11T07:58:20.960Z,940.27
2019-02-11T07:59:29.050Z,940.28
2019-02-11T08:00:36.986Z,940.30
2019-02-11T08:01:45.033Z,940.24
2019-02-11T08:02:53.093Z,940.28
2019-02-11T08:04:01.200Z,940.33
2019-02-11T08:05:09.196Z,940.38
2019-02-11T08:06:17.254Z,940.38
2019-02-11T08:07:25.318Z,940.43
2019-02-11T08:08:33.498Z,940.44
2019-02-11T08:09:41.420Z,940.50
2019-02-11T08:10:49.488Z,940.51
2019-02-11T08:11:57.558Z,940.60
2019-02-11T08:13:05.593Z,940.65
2019-02-11T08:14:13.758Z,940.64
2019-02-11T08:15:21.791Z,940.68
2019-02-11T08:16:29.791Z,940.73
2019-02-11T08:17:37.853Z,940.74
2019-02-11T08:18:46.798Z,940.71
2019-02-11T08:19:55.675Z,940.77
2019-02-11T08:21:01.992Z,940.78
2019-02-11T08:22:10.075Z,940.80
2019-02-11T08:23:18.118Z,940.85
2019-02-11T08:24:26.276Z,940.91
2019-02-11T08:25:34.231Z,940.98
2019-02-11T08:26:42.303Z,940.96
2019-02-11T08:27:50.362Z,940.98
2019-02-11T08:28:58.457Z,941.00
2019-02-11T08:30:06.476Z,941.01
2019-02-11T08:31:14.628Z,941.02
2019-02-11T08:32:22.626Z,941.06
2019-02-11T08:33:30.645Z,941.10
2019-02-11T08:34:38.795Z,941.22
2019-02-11T08:35:46.756Z,941.27
2019-02-11T08:36:54.825Z,941.24
2019-02-11T08:38:02.882Z,941.27
2019-02-11T08:39:10.982Z,941.28
2019-02-11T08:40:18.991Z,941.27
2019-02-11T08:41:27.039Z,941.28
2019-02-11T08:42:35.110Z,941.28
2019-02-11T08:43:43.171Z,941.33
2019-02-11T08:44:51.312Z,941.31
2019-02-11T08:45:59.278Z,941.36
2019-02-11T08:47:07.436Z,941.33
2019-02-11T08:48:15.391Z,941.38
2019-02-11T08:49:23.563Z,941.39
2019-02-11T08:50:31.507Z,941.40
2019-02-11T08:51:39.611Z,941.42
2019-02-11T08:52:47.636Z,941.50
2019-02-11T08:53:55.688Z,941.46
2019-02-11T08:55:03.757Z,941.47
2019-02-11T08:56:11.804Z,941.51
2019-02-11T08:57:19.869Z,941.51
2019-02-11T08:58:27.942Z,941.53
2019-02-11T08:59:36.046Z,941.55
2019-02-11T09:00:44.068Z,941.60
2019-02-11T09:01:52.104Z,941.60
2019-02-11T09:03:00.250Z,941.64
2019-02-11T09:04:08.217Z,941.67
2019-02-11T09:05:16.277Z,941.67
2019-02-11T09:06:24.359Z,941.69
2019-02-11T09:07:32.391Z,941.70
2019-02-11T09:08:40.460Z,941.68
2019-02-11T09:09:48.609Z,941.74
2019-02-11T09:10:56.579Z,941.79
2019-02-11T09:12:04.648Z,941.81
2019-02-11T09:13:12.695Z,941.86
2019-02-11T09:14:20.731Z,941.93
2019-02-11T09:15:28.798Z,942.00
2019-02-11T09:16:36.857Z,941.97
2019-02-11T09:17:45.016Z,941.97
2019-02-11T09:18:52.992Z,942.01
2019-02-11T09:20:01.129Z,942.01
2019-02-11T09:21:09.117Z,942.02
2019-02-11T09:22:17.166Z,942.06
2019-02-11T09:23:25.219Z,942.06
2019-02-11T09:24:34.873Z,942.10
2019-02-11T09:25:41.313Z,942.09
2019-02-11T09:26:49.384Z,942.10
2019-02-11T09:27:57.432Z,942.18
2019-02-11T09:29:05.507Z,942.18
2019-02-11T09:30:13.681Z,942.20
2019-02-11T09:31:21.623Z,942.22
2019-02-11T09:32:29.683Z,942.24
2019-02-11T09:33:37.912Z,942.29
2019-02-11T09:34:45.856Z,942.23
2019-02-11T09:35:53.853Z,942.19
2019-02-11T09:37:01.907Z,942.18
2019-02-11T09:38:09.995Z,942.23
2019-02-11T09:39:18.071Z,942.22
2019-02-11T09:40:26.219Z,942.25
2019-02-11T09:41:34.153Z,942.32
2019-02-11T09:42:42.202Z,942.33
2019-02-11T09:43:50.280Z,942.35
2019-02-11T09:44:58.394Z,942.37
2019-02-11T09:46:06.385Z,942.42
2019-02-11T09:47:14.465Z,942.38
2019-02-11T09:48:22.518Z,942.40
2019-02-11T09:49:30.672Z,942.41
2019-02-11T09:50:38.696Z,942.42
2019-02-11T09:51:46.691Z,942.46
2019-02-11T09:52:54.769Z,942.48
2019-02-11T09:54:02.835Z,942.52
2019-02-11T09:55:10.934Z,942.62
2019-02-11T09:56:18.951Z,942.62
2019-02-11T09:57:27.001Z,942.66
2019-02-11T09:58:35.071Z,942.59
2019-02-11T09:59:43.115Z,942.60
2019-02-11T10:00:51.224Z,942.60
2019-02-11T10:01:59.240Z,942.62
2019-02-11T10:03:07.301Z,942.60
2019-02-11T10:04:15.361Z,942.72
2019-02-11T10:05:23.531Z,942.75
2019-02-11T10:06:31.466Z,942.75
2019-02-11T10:07:39.541Z,942.76
2019-02-11T10:08:47.622Z,942.73
2019-02-11T10:09:55.677Z,942.76
2019-02-11T10:11:03.815Z,942.74
2019-02-11T10:12:11.774Z,942.77
2019-02-11T10:13:19.863Z,942.82
2019-02-11T10:14:27.910Z,942.82
2019-02-11T10:15:36.017Z,942.79
2019-02-11T10:16:44.042Z,942.82
2019-02-11T10:17:52.109Z,942.82
2019-02-11T10:19:00.152Z,942.86
2019-02-11T10:20:08.212Z,942.85
2019-02-11T10:21:16.345Z,942.85
2019-02-11T10:22:24.322Z,942.83
2019-02-11T10:23:32.386Z,942.87
2019-02-11T10:24:40.450Z,942.90
2019-02-11T10:25:48.570Z,943.01
2019-02-11T10:26:56.569Z,943.01
2019-02-11T10:28:04.631Z,943.09
2019-02-11T10:29:12.701Z,943.08
2019-02-11T10:30:20.745Z,943.09
2019-02-11T10:31:28.870Z,943.15
2019-02-11T10:32:37.115Z,943.18
2019-02-11T10:33:44.938Z,943.22
2019-02-11T10:34:53.003Z,943.29
2019-02-11T10:36:01.154Z,943.26
2019-02-11T10:37:09.215Z,943.33
2019-02-11T10:38:17.263Z,943.36
2019-02-11T10:39:25.246Z,943.31
2019-02-11T10:40:33.292Z,943.29
2019-02-11T10:41:41.611Z,943.27
2019-02-11T10:42:49.420Z,943.24
2019-02-11T10:43:57.494Z,943.25
2019-02-11T10:45:05.565Z,943.28
2019-02-11T10:46:20.785Z,943.27
2019-02-11T10:47:21.709Z,943.27
2019-02-11T10:48:29.728Z,943.23
2019-02-11T10:49:37.809Z,943.22
2019-02-11T10:50:45.840Z,943.19
2019-02-11T10:51:53.920Z,943.18
2019-02-11T10:53:02.051Z,943.20
2019-02-11T10:54:10.031Z,943.23
2019-02-11T10:55:18.134Z,943.20
2019-02-11T10:56:26.149Z,943.25
2019-02-11T10:57:34.258Z,943.28
2019-02-11T10:58:42.246Z,943.30
2019-02-11T10:59:50.349Z,943.36
2019-02-11T11:00:58.620Z,943.34
2019-02-11T11:02:06.469Z,943.32
2019-02-11T11:03:14.621Z,943.33
2019-02-11T11:04:22.684Z,943.35
2019-02-11T11:05:30.653Z,943.38
2019-02-11T11:06:38.691Z,943.36
2019-02-11T11:07:46.918Z,943.43
2019-02-11T11:08:54.930Z,943.49
2019-02-11T11:10:02.890Z,943.49
2019-02-11T11:11:10.944Z,943.58
2019-02-11T11:12:19.065Z,943.61
2019-02-11T11:13:27.673Z,943.65
2019-02-11T11:14:35.216Z,943.65
2019-02-11T11:15:43.194Z,943.67
2019-02-11T11:16:51.234Z,943.68
2019-02-11T11:17:59.305Z,943.69
2019-02-11T11:19:07.373Z,943.69
2019-02-11T11:20:15.596Z,943.75
2019-02-11T11:21:23.505Z,943.74
2019-02-11T11:22:31.652Z,943.76
2019-02-11T11:23:39.622Z,943.71
2019-02-11T11:24:47.702Z,943.72
2019-02-11T11:25:55.852Z,943.64
2019-02-11T11:27:03.795Z,943.65
2019-02-11T11:28:11.876Z,943.68
2019-02-11T11:29:19.934Z,943.71
2019-02-11T11:30:27.983Z,943.74
2019-02-11T11:31:36.149Z,943.78
2019-02-11T11:32:44.110Z,943.86
2019-02-11T11:33:52.147Z,943.89
2019-02-11T11:35:00.291Z,943.86
2019-02-11T11:36:08.307Z,943.93
2019-02-11T11:37:16.402Z,943.93
2019-02-11T11:38:24.507Z,943.92
2019-02-11T11:39:32.487Z,943.97
2019-02-11T11:40:40.549Z,944.00
2019-02-11T11:41:48.648Z,944.02
2019-02-11T11:42:56.663Z,944.06
2019-02-11T11:44:04.704Z,944.09
2019-02-11T11:45:12.779Z,944.09
2019-02-11T11:46:20.859Z,944.12
2019-02-11T11:47:28.934Z,944.11
2019-02-11T11:48:36.968Z,944.16
2019-02-11T11:49:45.019Z,944.14
2019-02-11T11:50:53.086Z,944.17
2019-02-11T11:52:01.223Z,944.19
2019-02-11T11:53:09.206Z,944.19
2019-02-11T11:54:17.359Z,944.20
2019-02-11T11:55:25.341Z,944.24
2019-02-11T11:56:33.391Z,944.28
2019-02-11T11:57:41.506Z,944.31
2019-02-11T11:58:49.499Z,944.35
2019-02-11T11:59:57.567Z,944.34
2019-02-11T12:01:05.624Z,944.33
2019-02-11T12:02:17.475Z,944.35
2019-02-11T12:03:21.734Z,944.36
2019-02-11T12:04:29.797Z,944.34
2019-02-11T12:05:37.870Z,944.36
2019-02-11T12:06:45.912Z,944.32
2019-02-11T12:07:54.078Z,944.30
2019-02-11T12:09:02.076Z,944.29
2019-02-11T12:10:10.187Z,944.26
2019-02-11T12:11:18.141Z,944.26
2019-02-11T12:12:26.256Z,944.28
2019-02-11T12:13:34.344Z,944.22
2019-02-11T12:14:42.333Z,944.31
2019-02-11T12:15:50.383Z,944.30
2019-02-11T12:17:02.596Z,944.32
2019-02-11T12:18:06.556Z,944.36
2019-02-11T12:19:14.584Z,944.42
2019-02-11T12:20:22.639Z,944.43
2019-02-11T12:21:30.689Z,944.44
2019-02-11T12:22:38.854Z,944.47
2019-02-11T12:23:46.802Z,944.47
2019-02-11T12:24:55.697Z,944.47
2019-02-11T12:26:03.033Z,944.43
2019-02-11T12:27:11.001Z,944.46
2019-02-11T12:28:19.142Z,944.45
2019-02-11T12:29:27.113Z,944.43
2019-02-11T12:30:35.179Z,944.44
2019-02-11T12:31:43.254Z,944.41
2019-02-11T12:32:54.285Z,944.43
2019-02-11T12:33:59.367Z,944.42
2019-02-11T12:35:07.412Z,944.43
2019-02-11T12:36:15.495Z,944.41
2019-02-11T12:37:23.557Z,944.48
2019-02-11T12:38:32.218Z,944.48
2019-02-11T12:39:39.669Z,944.50
2019-02-11T12:40:47.717Z,944.50
2019-02-11T12:41:55.882Z,944.49
2019-02-11T12:43:03.886Z,944.49
2019-02-11T12:44:11.871Z,944.49
2019-02-11T12:45:19.946Z,944.50
2019-02-11T12:46:28.033Z,944.45
2019-02-11T12:47:36.174Z,944.54
2019-02-11T12:48:44.157Z,944.52
2019-02-11T12:49:52.183Z,944.57
2019-02-11T12:51:00.241Z,944.64
2019-02-11T12:52:08.294Z,944.63
2019-02-11T12:53:16.412Z,944.64
2019-02-11T12:54:24.454Z,944.66
2019-02-11T12:55:32.538Z,944.66
2019-02-11T12:56:40.543Z,944.62
2019-02-11T12:57:48.716Z,944.57
2019-02-11T12:58:56.657Z,944.60
2019-02-11T13:00:04.734Z,944.54
2019-02-11T13:01:12.786Z,944.59
2019-02-11T13:02:20.906Z,944.56
2019-02-11T13:03:28.960Z,944.50
2019-02-11T13:04:36.997Z,944.52
2019-02-11T13:05:46.226Z,944.49
2019-02-11T13:06:53.095Z,944.52
2019-02-11T13:08:01.171Z,944.53
2019-02-11T13:09:09.229Z,944.57
2019-02-11T13:10:17.305Z,944.52
2019-02-11T13:11:25.347Z,944.51
2019-02-11T13:12:33.447Z,944.55
2019-02-11T13:13:41.539Z,944.55
2019-02-11T13:14:49.507Z,944.58
2019-02-11T13:16:01.796Z,944.58
2019-02-11T13:17:14.622Z,944.55
2019-02-11T13:18:13.869Z,944.62
2019-02-11T13:19:21.769Z,944.64
2019-02-11T13:20:29.818Z,944.62
2019-02-11T13:21:37.937Z,944.61
2019-02-11T13:22:45.970Z,944.60
2019-02-11T13:23:54.067Z,944.57
2019-02-11T13:25:02.076Z,944.55
2019-02-11T13:26:10.163Z,944.60
2019-02-11T13:27:18.176Z,944.61
2019-02-11T13:28:26.347Z,944.64
2019-02-11T13:29:34.302Z,944.67
2019-02-11T13:30:42.369Z,944.67
2019-02-11T13:31:50.515Z,944.64
2019-02-11T13:32:58.509Z,944.59
2019-02-11T13:34:06.577Z,944.56
2019-02-11T13:35:14.608Z,944.61
2019-02-11T13:36:22.676Z,944.67
2019-02-11T13:37:30.730Z,944.65
2019-02-11T13:38:38.825Z,944.70
2019-02-11T13:39:47.011Z,944.69
2019-02-11T13:40:54.925Z,944.65
2019-02-11T13:42:02.989Z,944.80
2019-02-11T13:43:11.033Z,944.76
2019-02-11T13:44:19.154Z,944.78
2019-02-11T13:45:27.212Z,944.81
2019-02-11T13:46:35.218Z,944.89
2019-02-11T13:47:53.041Z,944.98
2019-02-11T13:48:51.361Z,945.03
2019-02-11T13:49:59.426Z,945.03
2019-02-11T13:51:07.470Z,945.11
2019-02-11T13:52:15.501Z,945.14
2019-02-11T13:53:23.566Z,945.09
2019-02-11T13:54:31.727Z,945.06
2019-02-11T13:55:39.693Z,945.12
2019-02-11T13:56:47.741Z,945.09
2019-02-11T13:57:55.807Z,945.11
2019-02-11T13:59:03.958Z,945.12
2019-02-11T14:00:11.909Z,945.17
2019-02-11T14:01:20.000Z,945.15
2019-02-11T14:02:28.045Z,945.18
2019-02-11T14:03:36.203Z,945.19
2019-02-11T14:04:44.230Z,945.23
2019-02-11T14:05:52.223Z,945.26
2019-02-11T14:07:00.280Z,945.28
2019-02-11T14:08:08.373Z,945.30
2019-02-11T14:09:16.614Z,945.31